Time;durP1;ratioP1;P1;durP2;ratioP2;P2;SDS_P1;SDS_P2;PMS_P1;PMS_P2;Temp;Humidity;BMP_temperature;BMP_pressure;BME280_temperature;BME280_humidity;BME280_pressure;Samples;Min_cycle;Max_cycle;Signal;HPM_P1;HPM_P2
2022/04/13 00:00:14;;;;;;;7.38;2.70;;;3.30;99.90;;;;;;5053575;28;20323;-85
2022/04/13 00:02:42;;;;;;;4.28;2.92;;;3.20;99.90;;;;;;5053095;28;20122;-85
2022/04/13 00:05:09;;;;;;;3.35;2.50;;;3.20;99.90;;;;;;5053517;28;20549;-85
2022/04/13 00:07:36;;;;;;;4.80;2.65;;;3.10;99.90;;;;;;5054647;28;20573;-85
2022/04/13 00:10:05;;;;;;;4.93;3.00;;;3.00;99.90;;;;;;5053851;28;20088;-85
2022/04/13 00:12:31;;;;;;;4.05;3.25;;;3.10;99.90;;;;;;5053678;28;20055;-85
2022/04/13 00:14:58;;;;;;;5.60;3.05;;;3.10;99.90;;;;;;5054471;28;20140;-84
2022/04/13 00:17:25;;;;;;;5.35;2.65;;;3.20;99.90;;;;;;5054757;28;20045;-85
2022/04/13 00:19:53;;;;;;;7.47;3.03;;;3.20;99.90;;;;;;5054472;28;20095;-85
2022/04/13 00:22:19;;;;;;;6.85;2.88;;;3.20;99.90;;;;;;5054480;28;20131;-85
2022/04/13 00:24:46;;;;;;;4.78;2.60;;;3.30;99.90;;;;;;5054267;28;20139;-85
2022/04/13 00:27:13;;;;;;;4.20;2.88;;;3.30;99.90;;;;;;5054326;28;20501;-85
2022/04/13 00:29:40;;;;;;;4.43;2.40;;;3.30;99.90;;;;;;5054431;28;20505;-85
2022/04/13 00:32:07;;;;;;;3.35;3.03;;;3.20;99.90;;;;;;5053188;28;20497;-85
2022/04/13 00:34:34;;;;;;;8.40;2.63;;;3.20;99.90;;;;;;5053307;28;20083;-85
2022/04/13 00:37:00;;;;;;;2.88;2.67;;;3.10;99.90;;;;;;5054297;28;20077;-85
2022/04/13 00:39:27;;;;;;;6.28;2.80;;;3.00;99.90;;;;;;5053154;28;20060;-85
2022/04/13 00:41:59;;;;;;;5.50;2.88;;;3.00;99.90;;;;;;5052887;28;20075;-85
2022/04/13 00:44:27;;;;;;;6.47;2.70;;;3.00;99.90;;;;;;5053218;28;20139;-85
2022/04/13 00:46:55;;;;;;;4.28;2.63;;;2.90;99.90;;;;;;5053969;28;20088;-86
2022/04/13 00:49:23;;;;;;;8.20;3.42;;;2.80;99.90;;;;;;5054226;28;20053;-85
2022/04/13 00:51:50;;;;;;;5.00;2.90;;;2.70;99.90;;;;;;5052922;28;20501;-85
2022/04/13 00:54:18;;;;;;;4.88;2.70;;;2.70;99.90;;;;;;5053720;28;20140;-85
2022/04/13 00:56:48;;;;;;;9.32;3.22;;;2.60;99.90;;;;;;5052618;28;20053;-85
2022/04/13 00:59:16;;;;;;;4.15;3.17;;;2.50;99.90;;;;;;5052677;28;20083;-84
2022/04/13 01:01:49;;;;;;;5.07;3.15;;;2.50;99.90;;;;;;5053674;28;20072;-85
2022/04/13 01:04:16;;;;;;;7.70;3.17;;;2.60;99.90;;;;;;5052699;28;20102;-84
2022/04/13 01:06:44;;;;;;;6.20;2.78;;;2.50;99.90;;;;;;5052165;28;20144;-85
2022/04/13 01:09:12;;;;;;;5.47;2.97;;;2.60;99.90;;;;;;5053716;28;20461;-85
2022/04/13 01:11:39;;;;;;;4.03;2.33;;;2.50;99.90;;;;;;5052476;28;20155;-85
2022/04/13 01:14:08;;;;;;;7.03;3.28;;;2.50;99.90;;;;;;5052341;28;20055;-85
2022/04/13 01:16:37;;;;;;;5.00;3.13;;;2.50;99.90;;;;;;5052431;28;20131;-84
2022/04/13 01:19:06;;;;;;;2.47;2.28;;;2.40;99.90;;;;;;5053278;28;20057;-85
2022/04/13 01:21:47;;;;;;;6.47;3.00;;;2.40;99.90;;;;;;5052018;28;20413;-85
2022/04/13 01:24:15;;;;;;;5.53;2.80;;;2.50;99.90;;;;;;5053335;28;20139;-85
2022/04/13 01:26:42;;;;;;;3.60;2.83;;;2.50;99.90;;;;;;5052219;28;20049;-85
2022/04/13 01:29:10;;;;;;;3.70;2.50;;;2.60;99.90;;;;;;5052319;28;20114;-85
2022/04/13 01:31:37;;;;;;;5.53;2.63;;;2.50;99.90;;;;;;5052355;28;20140;-85
2022/04/13 01:34:04;;;;;;;2.60;2.40;;;2.60;99.90;;;;;;5051960;28;20080;-85
2022/04/13 01:36:33;;;;;;;2.95;2.42;;;2.70;99.90;;;;;;5053283;28;20052;-85
2022/04/13 01:39:01;;;;;;;4.95;2.92;;;2.70;99.90;;;;;;5052066;28;20564;-85
2022/04/13 01:41:28;;;;;;;3.67;2.42;;;2.70;99.90;;;;;;5052007;28;20485;-85
2022/04/13 01:43:56;;;;;;;2.60;2.40;;;2.70;99.90;;;;;;5051868;28;20127;-85
2022/04/13 01:46:23;;;;;;;2.92;2.63;;;2.70;99.90;;;;;;5052064;28;20091;-85
2022/04/13 01:48:50;;;;;;;3.42;2.70;;;2.70;99.90;;;;;;5051805;28;20084;-85
2022/04/13 01:51:20;;;;;;;6.50;2.75;;;2.60;99.90;;;;;;5053323;28;20052;-85
2022/04/13 01:53:51;;;;;;;5.40;2.30;;;2.50;99.90;;;;;;5051943;28;20041;-85
2022/04/13 01:56:18;;;;;;;3.38;2.60;;;2.50;99.90;;;;;;5051763;28;20080;-85
2022/04/13 01:58:45;;;;;;;2.70;2.28;;;2.40;99.90;;;;;;5052920;28;20128;-85
2022/04/13 02:01:11;;;;;;;3.97;2.58;;;2.30;99.90;;;;;;5053028;28;20501;-86
2022/04/13 02:03:38;;;;;;;3.08;2.70;;;2.20;99.90;;;;;;5051674;28;20056;-86
2022/04/13 02:06:05;;;;;;;3.45;2.72;;;2.20;99.90;;;;;;5051087;28;20065;-86
2022/04/13 02:08:33;;;;;;;3.33;2.78;;;2.20;99.90;;;;;;5051237;28;20143;-86
2022/04/13 02:11:00;;;;;;;3.00;2.70;;;2.10;99.90;;;;;;5051352;28;20095;-86
2022/04/13 02:13:26;;;;;;;4.20;2.80;;;2.10;99.90;;;;;;5051480;28;20128;-86
2022/04/13 02:15:54;;;;;;;2.35;2.22;;;2.10;99.90;;;;;;5052437;28;20041;-86
2022/04/13 02:18:20;;;;;;;3.50;2.83;;;2.10;99.90;;;;;;5051916;28;20124;-86
2022/04/13 02:20:47;;;;;;;3.28;2.97;;;2.10;99.90;;;;;;5050770;28;20079;-86
2022/04/13 02:23:14;;;;;;;3.13;2.72;;;2.00;99.90;;;;;;5052259;28;20132;-86
2022/04/13 02:25:41;;;;;;;3.35;2.50;;;2.10;99.90;;;;;;5053874;28;20563;-86
2022/04/13 02:28:08;;;;;;;3.88;3.38;;;2.00;99.90;;;;;;5055284;28;20572;-86
2022/04/13 02:30:35;;;;;;;8.48;3.30;;;2.00;99.90;;;;;;5056599;28;20164;-86
2022/04/13 02:33:01;;;;;;;6.35;3.00;;;2.10;99.90;;;;;;5056439;28;20049;-86
2022/04/13 02:35:29;;;;;;;3.30;2.80;;;2.20;99.90;;;;;;5055354;28;20053;-85
2022/04/13 02:37:56;;;;;;;4.10;2.75;;;2.10;99.90;;;;;;5055214;28;20132;-86
2022/04/13 02:40:22;;;;;;;4.60;2.58;;;2.20;99.90;;;;;;5056312;28;20049;-86
2022/04/13 02:42:49;;;;;;;3.03;2.75;;;2.10;99.90;;;;;;5056248;28;20049;-86
2022/04/13 02:45:16;;;;;;;6.75;3.03;;;2.10;99.90;;;;;;5056524;28;20423;-86
2022/04/13 02:47:43;;;;;;;3.38;3.00;;;2.00;99.90;;;;;;5056464;28;20045;-86
2022/04/13 02:50:10;;;;;;;5.70;2.72;;;2.00;99.90;;;;;;5055078;28;20414;-86
2022/04/13 02:52:36;;;;;;;4.68;2.85;;;1.90;99.90;;;;;;5054987;28;20084;-86
2022/04/13 02:55:04;;;;;;;3.22;2.60;;;1.90;99.90;;;;;;5055880;28;20047;-86
2022/04/13 02:57:31;;;;;;;4.70;2.63;;;1.80;99.90;;;;;;5054736;28;20091;-86
2022/04/13 02:59:57;;;;;;;3.70;2.90;;;1.70;99.90;;;;;;5055907;28;20048;-86
2022/04/13 03:02:29;;;;;;;3.53;2.75;;;1.70;99.90;;;;;;5054779;28;20127;-87
2022/04/13 03:04:56;;;;;;;6.32;2.95;;;1.60;99.90;;;;;;5055609;28;20107;-86
2022/04/13 03:07:25;;;;;;;3.80;2.60;;;1.70;99.90;;;;;;5054561;28;20080;-86
2022/04/13 03:09:52;;;;;;;4.03;3.00;;;1.60;99.90;;;;;;5054338;28;20053;-86
2022/04/13 03:12:19;;;;;;;6.22;3.20;;;1.60;99.90;;;;;;5055466;28;20131;-85
2022/04/13 03:14:45;;;;;;;3.80;3.25;;;1.70;99.90;;;;;;5054524;28;20076;-85
2022/04/13 03:17:12;;;;;;;4.07;3.35;;;1.60;99.90;;;;;;5055615;28;21118;-86
2022/04/13 03:19:39;;;;;;;3.45;3.17;;;1.50;99.90;;;;;;5055021;28;20103;-86
2022/04/13 03:22:06;;;;;;;3.97;3.33;;;1.60;99.90;;;;;;5055408;28;20128;-86
2022/04/13 03:24:34;;;;;;;3.67;3.38;;;1.50;99.90;;;;;;5055337;28;20059;-86
2022/04/13 03:27:01;;;;;;;4.05;3.28;;;1.50;99.90;;;;;;5055550;28;20092;-86
2022/04/13 03:29:28;;;;;;;3.97;3.17;;;1.50;99.90;;;;;;5054181;28;20083;-86
2022/04/13 03:31:55;;;;;;;4.30;3.30;;;1.50;99.90;;;;;;5055359;28;20485;-86
2022/04/13 03:34:22;;;;;;;4.13;2.83;;;1.50;99.90;;;;;;5054266;28;20489;-86
2022/04/13 03:36:52;;;;;;;4.88;3.38;;;1.40;99.90;;;;;;5055183;28;20110;-85
2022/04/13 03:39:19;;;;;;;3.10;2.90;;;1.60;99.90;;;;;;5055391;28;20091;-86
2022/04/13 03:41:45;;;;;;;10.40;4.28;;;1.50;99.90;;;;;;5055193;28;20041;-86
2022/04/13 03:44:12;;;;;;;4.70;3.42;;;1.50;99.90;;;;;;5055495;28;20107;-86
2022/04/13 03:46:39;;;;;;;3.80;3.08;;;1.50;99.90;;;;;;5054344;28;20135;-86
2022/04/13 03:49:09;;;;;;;3.85;3.40;;;1.40;99.90;;;;;;5054158;28;20049;-86
2022/04/13 03:51:36;;;;;;;4.75;3.33;;;1.40;99.90;;;;;;5055580;28;20132;-86
2022/04/13 03:54:03;;;;;;;7.88;3.47;;;1.40;99.90;;;;;;5054570;28;20099;-86
2022/04/13 03:56:30;;;;;;;7.63;3.70;;;1.50;99.90;;;;;;5054357;28;20057;-86
2022/04/13 03:58:57;;;;;;;5.60;3.70;;;1.60;99.90;;;;;;5055258;28;20566;-86
2022/04/13 04:01:25;;;;;;;8.68;4.40;;;1.60;99.90;;;;;;5055237;28;20200;-86
2022/04/13 04:03:53;;;;;;;7.97;4.53;;;1.60;99.90;;;;;;5053883;28;20128;-86
2022/04/13 04:06:20;;;;;;;4.50;4.10;;;1.60;99.90;;;;;;5053619;28;20537;-86
2022/04/13 04:08:47;;;;;;;6.43;4.35;;;1.60;99.90;;;;;;5054145;28;20071;-86
2022/04/13 04:11:14;;;;;;;4.88;3.85;;;1.50;99.90;;;;;;5054267;28;20128;-86
2022/04/13 04:13:41;;;;;;;10.75;5.13;;;1.50;99.90;;;;;;5054985;28;20153;-86
2022/04/13 04:16:07;;;;;;;5.53;3.90;;;1.60;99.90;;;;;;5053475;28;20446;-86
2022/04/13 04:18:34;;;;;;;5.82;4.15;;;1.50;99.90;;;;;;5054063;28;20103;-86
2022/04/13 04:21:01;;;;;;;9.32;4.18;;;1.40;99.90;;;;;;5053841;28;20048;-86
2022/04/13 04:23:28;;;;;;;9.57;4.30;;;1.40;99.90;;;;;;5055275;28;20048;-86
2022/04/13 04:25:55;;;;;;;9.52;4.55;;;1.40;99.90;;;;;;5054648;28;20131;-86
2022/04/13 04:28:21;;;;;;;7.22;4.82;;;1.50;99.90;;;;;;5054893;28;20143;-86
2022/04/13 04:30:48;;;;;;;10.38;4.22;;;1.50;99.90;;;;;;5053756;28;20136;-86
2022/04/13 04:33:16;;;;;;;7.05;4.10;;;1.60;99.90;;;;;;5054052;28;20056;-86
2022/04/13 04:35:50;;;;;;;4.25;3.65;;;1.60;99.90;;;;;;5053713;28;20128;-87
2022/04/13 04:38:17;;;;;;;3.92;3.63;;;1.60;99.90;;;;;;5054147;28;20048;-86
2022/04/13 04:40:44;;;;;;;10.27;4.32;;;1.60;99.90;;;;;;5053574;28;20059;-86
2022/04/13 04:43:11;;;;;;;6.00;4.57;;;1.60;99.90;;;;;;5054466;28;20077;-86
2022/04/13 04:45:37;;;;;;;14.00;4.50;;;1.60;99.90;;;;;;5053426;28;20384;-86
2022/04/13 04:48:05;;;;;;;8.02;4.60;;;1.60;99.90;;;;;;5052484;28;20056;-86
2022/04/13 04:50:33;;;;;;;8.68;5.28;;;1.50;99.90;;;;;;5054641;28;20445;-86
2022/04/13 04:53:00;;;;;;;13.35;6.55;;;1.60;99.90;;;;;;5054023;28;20532;-86
2022/04/13 04:55:28;;;;;;;9.52;6.20;;;1.60;99.90;;;;;;5054302;28;20055;-86
2022/04/13 04:57:55;;;;;;;11.52;6.53;;;1.60;99.90;;;;;;5054088;28;20497;-86
2022/04/13 05:00:22;;;;;;;10.40;6.90;;;1.60;99.90;;;;;;5053332;28;20049;-86
2022/04/13 05:02:51;;;;;;;14.13;8.77;;;1.80;99.90;;;;;;5054181;28;20124;-86
2022/04/13 05:05:19;;;;;;;13.48;6.57;;;1.80;99.90;;;;;;5054216;28;20386;-86
2022/04/13 05:07:46;;;;;;;7.43;6.30;;;1.90;99.90;;;;;;5052879;28;20087;-86
2022/04/13 05:10:13;;;;;;;23.52;9.77;;;2.10;99.90;;;;;;5054133;28;20051;-86
2022/04/13 05:12:51;;;;;;;20.35;8.55;;;2.20;99.90;;;;;;5052859;28;20099;-86
2022/04/13 05:15:19;;;;;;;21.75;8.05;;;2.40;99.90;;;;;;5052748;28;20048;-86
2022/04/13 05:17:46;;;;;;;17.58;8.02;;;2.60;99.90;;;;;;5052703;28;20498;-87
2022/04/13 05:20:12;;;;;;;14.23;5.88;;;2.70;99.90;;;;;;5052764;28;20541;-86
2022/04/13 05:22:39;;;;;;;12.98;6.10;;;2.90;99.90;;;;;;5052530;28;20140;-86
2022/04/13 05:25:11;;;;;;;10.48;5.70;;;3.00;99.90;;;;;;5053732;28;20094;-86
2022/04/13 05:27:38;;;;;;;12.45;6.18;;;3.10;99.90;;;;;;5052643;28;20136;-87
2022/04/13 05:30:06;;;;;;;11.82;5.70;;;3.40;99.90;;;;;;5052405;28;20045;-87
2022/04/13 05:32:48;;;;;;;6.57;4.28;;;3.70;99.90;;;;;;5053675;28;20505;-86
2022/04/13 05:35:16;;;;;;;6.78;3.28;;;4.00;99.90;;;;;;5052517;28;20051;-85
2022/04/13 05:37:44;;;;;;;4.20;2.92;;;4.60;99.90;;;;;;5052085;28;20049;-87
2022/04/13 05:40:11;;;;;;;7.45;2.90;;;5.20;99.90;;;;;;5053326;28;20085;-86
2022/04/13 05:42:38;;;;;;;13.23;3.10;;;5.40;99.90;;;;;;5053362;28;20485;-86
2022/04/13 05:45:06;;;;;;;38.08;7.80;;;5.60;99.90;;;;;;5053221;28;20124;-86
2022/04/13 05:47:32;;;;;;;9.57;3.33;;;5.70;99.90;;;;;;5053350;28;20059;-87
2022/04/13 05:49:59;;;;;;;6.00;3.30;;;6.20;99.90;;;;;;5052155;28;20041;-86
2022/04/13 05:52:26;;;;;;;7.55;3.47;;;6.70;99.90;;;;;;5052168;28;20056;-84
2022/04/13 05:54:53;;;;;;;3.60;3.17;;;7.00;99.90;;;;;;5052154;28;20136;-85
2022/04/13 05:57:20;;;;;;;5.43;3.20;;;7.80;99.90;;;;;;5052468;28;20058;-84
2022/04/13 05:59:46;;;;;;;12.15;4.00;;;8.40;99.90;;;;;;5053409;28;20086;-84
2022/04/13 06:02:13;;;;;;;14.85;4.75;;;8.80;99.90;;;;;;5052131;28;20047;-84
2022/04/13 06:04:40;;;;;;;32.30;7.18;;;9.40;99.90;;;;;;5052303;28;20049;-84
2022/04/13 06:07:07;;;;;;;51.42;11.60;;;9.80;99.90;;;;;;5052994;28;20471;-84
2022/04/13 06:09:34;;;;;;;60.47;12.27;;;9.70;99.90;;;;;;5053396;28;20492;-84
2022/04/13 06:12:00;;;;;;;63.47;14.80;;;9.60;99.90;;;;;;5052182;28;20136;-84
2022/04/13 06:14:27;;;;;;;76.88;17.85;;;9.80;99.90;;;;;;5052004;28;20140;-84
2022/04/13 06:16:59;;;;;;;64.03;14.75;;;10.30;99.90;;;;;;5053124;28;20060;-84
2022/04/13 06:19:26;;;;;;;65.30;12.20;;;10.90;99.90;;;;;;5053215;28;20045;-84
2022/04/13 06:21:52;;;;;;;55.75;11.98;;;11.10;99.90;;;;;;5051945;28;20084;-84
2022/04/13 06:24:19;;;;;;;112.55;19.75;;;11.10;99.90;;;;;;5051670;28;20057;-84
2022/04/13 06:26:46;;;;;;;33.20;8.85;;;11.20;99.90;;;;;;5051637;28;20497;-85
2022/04/13 06:29:13;;;;;;;33.05;7.28;;;11.30;99.90;;;;;;5049842;28;20129;-85
2022/04/13 06:31:39;;;;;;;104.60;18.52;;;11.40;99.90;;;;;;5050892;28;20083;-84
2022/04/13 06:34:06;;;;;;;24.05;5.60;;;11.60;99.90;;;;;;5051327;28;20132;-84
2022/04/13 06:36:33;;;;;;;10.52;3.67;;;11.80;99.90;;;;;;5051830;28;20081;-85
2022/04/13 06:39:00;;;;;;;16.65;4.03;;;12.10;99.90;;;;;;5050908;28;20296;-85
2022/04/13 06:41:27;;;;;;;19.70;4.20;;;12.60;99.90;;;;;;5052591;28;20136;-85
2022/04/13 06:43:55;;;;;;;29.30;5.07;;;12.90;99.90;;;;;;5051358;28;20087;-85
2022/04/13 06:46:22;;;;;;;34.17;6.75;;;13.20;99.80;;;;;;5051816;28;20173;-85
2022/04/13 06:48:49;;;;;;;37.95;6.70;;;13.20;99.90;;;;;;5050374;28;20588;-85
2022/04/13 06:51:16;;;;;;;51.45;11.00;;;13.80;99.60;;;;;;5051158;28;20065;-84
2022/04/13 06:53:43;;;;;;;6.70;2.90;;;13.80;97.90;;;;;;5051400;28;20128;-84
2022/04/13 06:56:09;;;;;;;6.85;2.50;;;13.90;96.30;;;;;;5052576;28;20049;-84
2022/04/13 06:58:36;;;;;;;7.65;3.63;;;14.10;95.70;;;;;;5051424;28;20045;-84
2022/04/13 07:01:03;;;;;;;31.13;6.07;;;14.20;95.80;;;;;;5052163;28;20148;-84
2022/04/13 07:03:30;;;;;;;75.15;11.45;;;14.80;95.50;;;;;;5050952;28;20409;-85
2022/04/13 07:05:57;;;;;;;60.75;12.85;;;15.10;93.20;;;;;;5051851;28;20056;-84
2022/04/13 07:08:24;;;;;;;33.67;7.30;;;15.90;92.30;;;;;;5052387;28;20087;-85
2022/04/13 07:10:51;;;;;;;46.83;9.70;;;16.80;89.60;;;;;;5053150;28;20053;-85
2022/04/13 07:13:18;;;;;;;14.88;4.53;;;17.80;83.80;;;;;;5055401;28;20092;-85
2022/04/13 07:15:45;;;;;;;9.38;3.53;;;18.30;80.00;;;;;;5054800;28;20080;-86
2022/04/13 07:18:12;;;;;;;16.75;4.82;;;18.30;78.70;;;;;;5055641;28;20045;-85
2022/04/13 07:20:39;;;;;;;32.33;8.25;;;18.60;77.10;;;;;;5055294;28;20045;-85
2022/04/13 07:23:06;;;;;;;30.92;6.25;;;19.40;76.70;;;;;;5054891;28;20084;-85
2022/04/13 07:25:33;;;;;;;17.55;5.45;;;19.60;72.90;;;;;;5054883;28;20045;-85
2022/04/13 07:28:00;;;;;;;13.05;4.45;;;19.80;72.40;;;;;;5054732;28;20056;-85
2022/04/13 07:30:27;;;;;;;26.30;5.80;;;20.00;70.90;;;;;;5054380;28;20136;-86
2022/04/13 07:33:01;;;;;;;22.00;5.63;;;19.60;72.40;;;;;;5054524;28;20104;-85
2022/04/13 07:35:30;;;;;;;29.08;5.57;;;20.70;70.60;;;;;;5054570;28;20049;-85
2022/04/13 07:37:57;;;;;;;13.85;4.10;;;20.60;70.60;;;;;;5054632;28;20501;-85
2022/04/13 07:40:24;;;;;;;11.50;5.00;;;20.20;69.30;;;;;;5055728;28;20045;-85
2022/04/13 07:42:51;;;;;;;23.85;5.45;;;20.00;68.70;;;;;;5054485;28;20137;-85
2022/04/13 07:45:18;;;;;;;32.08;5.45;;;19.80;70.50;;;;;;5055563;28;20051;-85
2022/04/13 07:47:45;;;;;;;31.80;6.40;;;19.90;70.30;;;;;;5055443;28;20480;-85
2022/04/13 07:50:12;;;;;;;30.80;5.72;;;19.70;68.90;;;;;;5054517;28;20450;-85
2022/04/13 07:52:40;;;;;;;21.88;5.60;;;20.10;70.00;;;;;;5055338;28;20585;-85
2022/04/13 07:55:12;;;;;;;9.70;2.80;;;20.30;70.20;;;;;;5054202;28;20131;-85
2022/04/13 07:57:40;;;;;;;12.68;3.92;;;20.20;69.00;;;;;;5053981;28;20127;-85
2022/04/13 08:00:09;;;;;;;12.68;3.03;;;19.80;70.80;;;;;;5087511;28;20095;-84
2022/04/13 08:02:37;;;;;;;13.88;3.78;;;19.80;70.00;;;;;;5087774;28;20128;-85
2022/04/13 08:05:05;;;;;;;13.07;4.03;;;20.60;69.40;;;;;;5054181;28;20076;-86
2022/04/13 08:07:31;;;;;;;12.43;3.90;;;21.30;68.00;;;;;;5055201;28;20057;-86
2022/04/13 08:09:59;;;;;;;22.35;4.35;;;21.90;65.20;;;;;;5053902;28;20143;-85
2022/04/13 08:12:29;;;;;;;18.67;3.75;;;22.50;65.30;;;;;;5055490;28;20076;-86
2022/04/13 08:14:57;;;;;;;12.82;4.28;;;23.00;64.60;;;;;;5054020;28;20136;-86
2022/04/13 08:17:25;;;;;;;9.10;3.25;;;24.30;62.00;;;;;;5054208;28;20048;-86
2022/04/13 08:19:53;;;;;;;19.35;3.92;;;25.10;58.90;;;;;;5053912;28;20406;-86
2022/04/13 08:22:24;;;;;;;16.77;4.90;;;26.20;57.20;;;;;;5051118;28;20088;-86
2022/04/13 08:24:52;;;;;;;15.63;3.65;;;26.90;54.60;;;;;;5054468;28;20144;-86
2022/04/13 08:27:19;;;;;;;18.55;4.22;;;26.80;53.90;;;;;;5053777;28;20049;-86
2022/04/13 08:29:47;;;;;;;14.77;3.13;;;27.00;52.50;;;;;;5055197;28;20088;-86
2022/04/13 08:32:18;;;;;;;17.10;3.47;;;26.00;52.60;;;;;;5055171;28;20405;-86
2022/04/13 08:34:46;;;;;;;16.23;3.58;;;26.80;52.70;;;;;;5074655;28;20187;-86
2022/04/13 08:37:12;;;;;;;17.33;3.92;;;26.80;53.20;;;;;;5054972;28;20131;-85
2022/04/13 08:39:40;;;;;;;19.58;4.30;;;26.80;52.70;;;;;;5053946;28;20085;-84
2022/04/13 08:42:20;;;;;;;15.52;3.95;;;26.70;53.00;;;;;;5054015;28;20083;-84
2022/04/13 08:44:47;;;;;;;11.75;3.17;;;27.00;52.70;;;;;;5053533;28;20049;-84
2022/04/13 08:47:20;;;;;;;11.85;3.15;;;26.50;52.30;;;;;;5053946;28;20080;-84
2022/04/13 08:49:49;;;;;;;;;;;27.50;50.20;;;;;;5053805;28;20139;-84
2022/04/13 08:52:30;;;;;;;12.07;3.92;;;27.50;51.80;;;;;;5053677;28;19943;-84
2022/04/13 08:55:11;;;;;;;16.25;3.88;;;27.50;51.40;;;;;;5054192;28;20152;-85
2022/04/13 08:57:53;;;;;;;9.85;3.72;;;27.40;50.90;;;;;;5053357;28;20049;-85
2022/04/13 09:00:25;;;;;;;7.25;3.03;;;27.10;52.20;;;;;;5053995;28;20043;-85
2022/04/13 09:03:20;;;;;;;9.90;3.10;;;28.30;50.50;;;;;;5054329;28;20454;-85
2022/04/13 09:05:54;;;;;;;9.65;3.40;;;30.00;48.50;;;;;;5054090;28;20061;-85
2022/04/13 09:08:23;;;;;;;5.65;2.58;;;30.80;49.10;;;;;;5053430;28;20048;-85
2022/04/13 09:10:52;;;;;;;7.32;2.78;;;31.20;46.20;;;;;;5052946;28;20083;-85
2022/04/13 09:13:20;;;;;;;6.60;2.53;;;32.20;44.50;;;;;;5053406;28;20080;-85
2022/04/13 09:15:48;;;;;;;7.20;2.05;;;31.60;42.50;;;;;;5054413;28;20056;-85
2022/04/13 09:18:15;;;;;;;5.38;2.17;;;31.30;43.70;;;;;;5053427;28;20099;-86
2022/04/13 09:20:42;;;;;;;4.43;2.05;;;31.60;43.40;;;;;;5053332;28;20075;-86
2022/04/13 09:23:09;;;;;;;17.83;3.25;;;32.20;42.60;;;;;;5054115;28;20068;-85
2022/04/13 09:25:39;;;;;;;9.07;2.10;;;32.00;42.60;;;;;;5052719;28;20045;-85
2022/04/13 09:28:06;;;;;;;5.90;2.30;;;32.20;42.40;;;;;;5052946;28;20053;-85
2022/04/13 09:30:34;;;;;;;6.82;2.20;;;32.60;41.60;;;;;;5052992;28;20045;-86
2022/04/13 09:33:05;;;;;;;4.88;2.20;;;33.40;42.50;;;;;;5052728;28;20120;-86
2022/04/13 09:35:33;;;;;;;3.72;1.60;;;33.50;40.70;;;;;;5052956;28;20048;-86
2022/04/13 09:38:02;;;;;;;3.15;1.27;;;33.20;40.10;;;;;;5052619;28;20077;-85
2022/04/13 09:40:40;;;;;;;2.83;1.25;;;32.80;39.20;;;;;;5052645;28;20475;-86
2022/04/13 09:43:15;;;;;;;3.42;1.40;;;32.60;40.00;;;;;;5053966;28;20049;-86
2022/04/13 09:45:43;;;;;;;2.72;1.08;;;33.40;41.40;;;;;;5052407;28;20045;-86
2022/04/13 09:48:16;;;;;;;2.08;1.23;;;33.60;40.50;;;;;;5052703;28;20455;-86
2022/04/13 09:50:44;;;;;;;3.42;1.27;;;34.20;40.20;;;;;;5053334;28;20047;-86
2022/04/13 09:53:13;;;;;;;2.17;1.20;;;33.50;39.40;;;;;;5053732;28;20482;-85
2022/04/13 09:55:43;;;;;;;6.75;1.80;;;33.00;38.90;;;;;;5052410;28;20080;-86
2022/04/13 09:58:15;;;;;;;2.90;1.20;;;32.70;40.70;;;;;;5052806;28;20139;-86
2022/04/13 10:00:43;;;;;;;4.90;1.13;;;32.10;39.60;;;;;;5052523;28;20127;-87
2022/04/13 10:03:18;;;;;;;14.15;2.30;;;32.60;40.00;;;;;;5052163;28;20505;-85
2022/04/13 10:05:47;;;;;;;6.28;1.70;;;32.10;37.60;;;;;;5069092;28;20057;-85
2022/04/13 10:08:15;;;;;;;1.58;1.17;;;31.80;38.80;;;;;;5053477;28;20084;-86
2022/04/13 10:10:46;;;;;;;12.95;2.58;;;31.30;39.60;;;;;;5053479;28;20060;-85
2022/04/13 10:13:35;;;;;;;7.68;1.58;;;30.30;40.10;;;;;;5053278;28;20102;-87
2022/04/13 10:16:08;;;;;;;4.97;1.63;;;30.30;40.40;;;;;;5052542;28;20076;-86
2022/04/13 10:18:55;;;;;;;4.25;1.20;;;30.20;40.90;;;;;;5052592;28;20044;-86
2022/04/13 10:21:43;;;;;;;11.63;2.08;;;30.10;40.80;;;;;;5053764;28;20048;-85
2022/04/13 10:24:33;;;;;;;4.05;1.30;;;29.10;39.60;;;;;;5052368;28;20103;-85
2022/04/13 10:27:17;;;;;;;17.58;8.85;;;29.30;40.90;;;;;;5051905;28;20055;-85
2022/04/13 10:29:49;;;;;;;3.22;1.08;;;28.90;40.90;;;;;;5052323;28;20080;-86
2022/04/13 10:32:24;;;;;;;1.55;1.45;;;29.60;41.00;;;;;;5052181;28;20128;-85
2022/04/13 10:34:52;;;;;;;3.10;1.05;;;30.10;41.60;;;;;;5052088;28;20092;-86
2022/04/13 10:37:22;;;;;;;3.63;1.20;;;30.60;40.40;;;;;;5052206;28;20044;-86
2022/04/13 10:39:54;;;;;;;24.15;13.98;;;30.40;40.90;;;;;;5052139;28;20044;-85
2022/04/13 10:42:21;;;;;;;2.03;1.60;;;30.10;39.90;;;;;;5051730;28;20049;-86
2022/04/13 10:45:06;;;;;;;1.27;1.17;;;30.10;39.70;;;;;;5052423;28;20057;-86
2022/04/13 10:48:00;;;;;;;1.80;1.20;;;29.90;39.80;;;;;;5055534;28;20081;-86
2022/04/13 10:50:47;;;;;;;1.75;1.63;;;29.90;39.30;;;;;;5056296;28;20382;-86
2022/04/13 10:53:23;;;;;;;3.25;1.48;;;29.60;40.60;;;;;;5055822;28;20516;-86
2022/04/13 10:56:01;;;;;;;1.73;1.33;;;30.40;39.80;;;;;;5055682;28;20124;-85
2022/04/13 10:58:51;;;;;;;2.22;1.30;;;30.80;38.50;;;;;;5055163;28;20113;-85
2022/04/13 11:01:20;;;;;;;1.88;1.33;;;31.80;38.60;;;;;;5056815;28;20049;-86
2022/04/13 11:03:48;;;;;;;1.52;1.42;;;31.70;39.20;;;;;;5055537;28;20394;-86
2022/04/13 11:06:15;;;;;;;3.10;1.55;;;31.30;37.70;;;;;;5055321;28;20536;-86
2022/04/13 11:08:53;;;;;;;1.50;1.40;;;30.80;39.00;;;;;;5055296;28;20075;-87
2022/04/13 11:11:26;;;;;;;4.20;1.67;;;30.30;38.60;;;;;;5056867;28;20136;-85
2022/04/13 11:13:53;;;;;;;3.38;1.95;;;29.40;39.00;;;;;;5055331;28;20472;-86
2022/04/13 11:16:21;;;;;;;3.72;1.10;;;29.50;39.40;;;;;;5055620;28;20551;-87
2022/04/13 11:19:11;;;;;;;3.63;1.30;;;29.70;38.30;;;;;;5055382;28;20045;-86
2022/04/13 11:21:54;;;;;;;1.05;1.00;;;29.00;37.50;;;;;;5055890;28;20088;-86
2022/04/13 11:24:40;;;;;;;2.13;1.00;;;28.80;38.10;;;;;;5055099;28;20048;-86
2022/04/13 11:27:11;;;;;;;2.55;1.00;;;29.20;39.90;;;;;;5056288;28;20049;-85
2022/04/13 11:29:43;;;;;;;2.60;1.27;;;29.20;39.20;;;;;;5055266;28;20083;-86
2022/04/13 11:32:12;;;;;;;3.25;0.98;;;29.60;39.40;;;;;;5055434;28;20478;-86
2022/04/13 11:34:51;;;;;;;2.25;0.90;;;29.10;38.10;;;;;;5054433;28;20132;-85
2022/04/13 11:37:21;;;;;;;3.90;1.10;;;28.80;39.10;;;;;;5056084;28;20148;-86
2022/04/13 11:39:57;;;;;;;3.28;1.10;;;29.10;40.10;;;;;;5054909;28;20055;-86
2022/04/13 11:42:26;;;;;;;2.20;0.80;;;29.10;38.90;;;;;;5056184;28;20080;-86
2022/04/13 11:45:00;;;;;;;2.20;1.05;;;29.60;39.40;;;;;;5054309;28;20076;-86
2022/04/13 11:47:36;;;;;;;;;;;30.30;39.50;;;;;;5056352;28;20069;-86
2022/04/13 11:50:19;;;;;;;7.82;1.77;;;30.20;38.30;;;;;;5054163;28;20294;-84
2022/04/13 11:52:48;;;;;;;14.27;1.90;;;29.90;38.40;;;;;;5055966;28;20040;-85
2022/04/13 11:55:31;;;;;;;6.05;1.40;;;29.80;40.00;;;;;;5054885;28;20091;-86
2022/04/13 11:57:59;;;;;;;1.70;0.80;;;29.90;38.90;;;;;;5054414;28;20059;-84
2022/04/13 12:00:42;;;;;;;1.13;1.02;;;29.40;38.60;;;;;;5054661;28;20045;-84
2022/04/13 12:03:13;;;;;;;4.63;0.73;;;29.80;40.40;;;;;;5055784;28;20079;-85
2022/04/13 12:05:41;;;;;;;1.80;0.98;;;30.30;38.50;;;;;;5054039;28;20517;-86
2022/04/13 12:08:35;;;;;;;2.90;1.00;;;30.30;40.00;;;;;;5054509;28;20144;-86
2022/04/13 12:11:04;;;;;;;;;;;30.10;39.30;;;;;;5068555;28;20083;-86
2022/04/13 12:13:44;;;;;;;0.80;0.80;;;30.20;39.20;;;;;;5055501;28;19952;-86
2022/04/13 12:16:20;;;;;;;3.30;1.08;;;29.70;38.80;;;;;;5054484;28;20110;-85
2022/04/13 12:18:47;;;;;;;2.67;1.20;;;29.30;40.10;;;;;;5054408;28;20123;-84
2022/04/13 12:21:16;;;;;;;2.70;1.73;;;29.10;39.20;;;;;;5055543;28;20068;-85
2022/04/13 12:23:44;;;;;;;5.22;1.45;;;28.60;40.10;;;;;;5054483;28;20091;-85
2022/04/13 12:26:11;;;;;;;3.10;1.50;;;29.00;41.90;;;;;;5054158;28;20055;-86
2022/04/13 12:28:38;;;;;;;2.58;0.82;;;29.40;41.60;;;;;;5054170;28;20052;-85
2022/04/13 12:31:07;;;;;;;2.80;0.90;;;29.50;42.30;;;;;;5053988;28;20482;-85
2022/04/13 12:33:36;;;;;;;1.95;0.98;;;29.90;40.70;;;;;;5054379;28;20045;-86
2022/04/13 12:36:10;;;;;;;3.20;1.08;;;30.10;39.60;;;;;;5054800;28;20084;-85
2022/04/13 12:38:54;;;;;;;5.60;1.08;;;29.90;39.70;;;;;;5054309;28;20128;-86
2022/04/13 12:41:23;;;;;;;3.05;0.68;;;29.60;40.50;;;;;;5053846;28;20052;-87
2022/04/13 12:43:59;;;;;;;2.22;1.27;;;29.20;40.90;;;;;;5053893;28;20464;-87
2022/04/13 12:46:28;;;;;;;2.58;1.05;;;29.10;41.90;;;;;;5054073;28;20132;-86
2022/04/13 12:48:57;;;;;;;1.17;0.98;;;28.70;42.10;;;;;;5053671;28;20049;-86
2022/04/13 12:51:35;;;;;;;0.85;0.85;;;28.60;41.60;;;;;;5053758;28;20044;-86
2022/04/13 12:54:07;;;;;;;2.50;1.40;;;28.40;41.80;;;;;;5053390;28;20099;-87
2022/04/13 12:56:36;;;;;;;1.52;0.88;;;28.00;43.10;;;;;;5053762;28;20131;-85
2022/04/13 12:59:04;;;;;;;25.85;3.55;;;28.10;43.60;;;;;;5054653;28;20481;-85